ADA weather

Adana Airport
Adana, Adana Province, Turkey

Public forecast

Using degrees Celsius for public forecast. Weather courtesy of forecast.io.

Current aviation weather report (METAR) for Adana Airport

Retrieved 2019/12/14 04:20 UTC (19 minutes ago):

LTAF 140420Z 35008KT 4000 -SHRA BR SCT030 BKN100 12/10 Q1012 NOSIG RMK RWY23 02008KT

Aviation forecast (TAF) for Adana Airport

Retrieved 2019-12-14 00:00 UTC (5 hours ago):

TAF LTAF 132240Z 1400/1424 03009KT 4000 -SHRA BR SCT030 BKN100